Time;durP1;ratioP1;P1;durP2;ratioP2;P2;SDS_P1;SDS_P2;PMS_P1;PMS_P2;Temp;Humidity;BMP_temperature;BMP_pressure;BME280_temperature;BME280_humidity;BME280_pressure;Samples;Min_cycle;Max_cycle;Signal;HPM_P1;HPM_P2
2024/01/20 03:24:27;;;;;;;;;;;;;;;;;;;;;
2024/01/20 06:27:14;;;;;;;;;;;;;;;;;;;;;
2024/01/20 06:34:16;;;;;;;;;;;;;;;;;;;;;
2024/01/20 06:37:45;;;;;;;;;;;;;;;;;;;;;
2024/01/20 06:44:27;;;;;;;;;;;;;;;;;;;;;
2024/01/20 06:54:43;;;;;;;;;0.00;0.00;;;;;-1.26;100.00;102795.34;5842464;24;46591;-94
2024/01/20 06:58:16;;;;;;;;;;;;;;;;;;;;;
2024/01/20 07:04:37;;;;;;;;;;;;;;;;;;;;;
2024/01/20 07:12:08;;;;;;;;;;;;;;;;;;;;;
2024/01/20 07:14:43;;;;;;;;;;;;;;;;;;;;;
2024/01/20 07:20:57;;;;;;;;;;;;;;;;;;;;;
2024/01/20 07:24:02;;;;;;;;;0.00;0.00;;;;;-1.41;100.00;102806.50;6071294;23;73836;-93
2024/01/20 07:27:17;;;;;;;;;;;;;;;;;;;;;
2024/01/20 07:30:18;;;;;;;;;0.00;0.00;;;;;-1.43;100.00;102817.41;6089878;23;45492;-94
2024/01/20 07:32:44;;;;;;;;;0.00;0.00;;;;;-1.53;100.00;102794.75;6070206;23;45515;-88
2024/01/20 07:35:09;;;;;;;;;0.00;0.00;;;;;-1.48;100.00;102806.09;6211731;22;63195;-87
2024/01/20 07:37:36;;;;;;;;;0.00;0.00;;;;;-1.52;100.00;102794.81;6215317;22;45496;-87
2024/01/20 07:40:03;;;;;;;;;0.00;0.00;;;;;-1.45;100.00;102817.34;6215575;22;45443;-85
2024/01/20 07:42:29;;;;;;;;;0.00;0.00;;;;;-1.52;100.00;102805.03;6240862;22;45477;-88
2024/01/20 07:44:54;;;;;;;;;0.00;0.00;;;;;-1.58;100.00;102786.81;6214347;22;66149;-88
2024/01/20 07:47:22;;;;;;;;;0.00;0.00;;;;;-1.54;100.00;102798.97;6310380;22;45236;-84
2024/01/20 07:49:47;;;;;;;;;0.00;0.00;;;;;-1.56;100.00;102795.44;6399055;22;60924;-87
2024/01/20 07:52:12;;;;;;;;;0.00;0.00;;;;;-1.58;100.00;102802.13;6345984;22;45278;-85
2024/01/20 07:54:38;;;;;;;;;0.00;0.00;;;;;-1.53;100.00;102808.38;6399627;22;57871;-85
2024/01/20 07:57:03;;;;;;;;;0.00;0.00;;;;;-1.57;100.00;102811.56;6370844;22;70324;-85
2024/01/20 07:59:29;;;;;;;;;0.00;0.00;;;;;-1.55;100.00;102817.63;6399806;22;45281;-84
2024/01/20 08:01:54;;;;;;;;;0.00;0.00;;;;;-1.51;100.00;102823.78;6399974;22;45513;-86
2024/01/20 08:04:20;;;;;;;;;0.00;0.00;;;;;-1.59;100.00;102808.06;6371840;22;46322;-83
2024/01/20 08:06:45;;;;;;;;;0.00;0.00;;;;;-1.59;100.00;102814.03;6372008;22;45332;-85
2024/01/20 08:09:18;;;;;;;;;0.00;0.00;;;;;-1.50;100.00;102831.53;6345900;22;45382;-83
2024/01/20 08:11:43;;;;;;;;;0.00;0.00;;;;;-1.55;100.00;102825.31;6399667;22;45273;-87
2024/01/20 08:14:08;;;;;;;;;0.00;0.00;;;;;-1.54;100.00;102818.50;6371941;22;48050;-84
2024/01/20 08:16:35;;;;;;;;;0.00;0.00;;;;;-1.47;100.00;102833.38;6370662;22;74440;-86
2024/01/20 08:19:00;;;;;;;;;0.00;0.00;;;;;-1.45;100.00;102835.22;6372680;22;45329;-86
2024/01/20 08:21:34;;;;;;;;;0.00;0.00;;;;;-1.46;100.00;102835.16;6373774;22;49343;-89
2024/01/20 08:24:02;;;;;;;;;0.00;0.00;;;;;-1.48;100.00;102824.84;6374128;22;46171;-90
2024/01/20 08:26:36;;;;;;;;;0.00;0.00;;;;;-1.42;100.00;102832.81;6374568;22;45350;-94
2024/01/20 08:29:02;;;;;;;;;0.00;0.00;;;;;-1.39;100.00;102829.56;6402884;22;45561;-92
2024/01/20 08:31:48;;;;;;;;;0.00;0.00;;;;;-1.34;100.00;102830.69;6375033;22;45395;-94
2024/01/20 08:34:13;;;;;;;;;0.00;0.00;;;;;-1.31;100.00;102824.88;6376306;22;45444;-88
2024/01/20 08:36:38;;;;;;;;;0.00;0.00;;;;;-1.31;100.00;102818.06;6347563;22;68791;-91
2024/01/20 08:39:07;;;;;;;;;0.00;0.00;;;;;-1.24;100.00;102825.28;6374194;22;45574;-94
2024/01/20 08:41:35;;;;;;;;;0.00;0.00;;;;;-1.20;100.00;102836.53;6347510;22;45190;-91
2024/01/20 08:44:00;;;;;;;;;0.00;0.00;;;;;-1.15;100.00;102831.66;6373811;22;45363;-89
2024/01/20 08:46:25;;;;;;;;;0.00;0.00;;;;;-1.15;100.00;102823.97;6345938;22;74191;-89
2024/01/20 08:48:51;;;;;;;;;0.00;0.00;;;;;-1.10;100.00;102831.09;6345938;22;65797;-86
2024/01/20 08:51:19;;;;;;;;;0.00;0.00;;;;;-1.06;100.00;102827.03;6374871;22;45342;-93
2024/01/20 08:53:52;;;;;;;;;0.00;0.00;;;;;-1.11;100.00;102813.16;6374635;22;45798;-92
2024/01/20 08:56:17;;;;;;;;;0.00;0.00;;;;;-1.06;100.00;102817.69;6374664;22;45556;-91
2024/01/20 08:58:43;;;;;;;;;0.00;0.00;;;;;-1.03;100.00;102820.41;6403298;22;45366;-92
2024/01/20 09:01:08;;;;;;;;;0.00;0.00;;;;;-0.94;100.00;102822.56;6348475;22;45177;-92
2024/01/20 09:03:33;;;;;;;;;0.00;0.00;;;;;-0.93;100.00;102826.84;6374192;22;45192;-92
2024/01/20 09:06:02;;;;;;;;;0.00;0.00;;;;;-0.82;100.00;102840.19;6374761;22;45181;-92
2024/01/20 09:08:27;;;;;;;;;0.00;0.00;;;;;-0.83;100.00;102824.00;6403194;22;45233;-92
2024/01/20 09:10:52;;;;;;;;;0.00;0.00;;;;;-0.78;100.00;102824.22;6348449;22;45490;-92
2024/01/20 09:13:22;;;;;;;;;0.00;0.00;;;;;-0.68;100.00;102834.13;6373372;22;46469;-92
2024/01/20 09:15:47;;;;;;;;;10.00;10.00;;;;;-0.68;100.00;102826.44;6347847;22;45360;-92
2024/01/20 09:18:16;;;;;;;;;0.00;0.00;;;;;-0.56;100.00;102827.88;6374399;22;45342;-92
2024/01/20 09:20:41;;;;;;;;;0.00;0.00;;;;;-0.57;100.00;102803.97;6348915;22;45383;-92
2024/01/20 09:23:07;;;;;;;;;0.00;0.00;;;;;-0.48;100.00;102817.22;6402554;22;45520;-92
2024/01/20 09:25:32;;;;;;;;;0.00;0.00;;;;;-0.47;100.00;102800.19;6348593;22;45765;-92
2024/01/20 09:27:57;;;;;;;;;0.00;0.00;;;;;-0.41;100.00;102797.91;6348477;22;45400;-92
2024/01/20 09:30:23;;;;;;;;;0.00;0.00;;;;;-0.29;100.00;102811.31;6402766;22;45224;-92
2024/01/20 09:32:48;;;;;;;;;0.00;0.00;;;;;-0.26;100.00;102805.47;6402231;22;52492;-92
2024/01/20 09:35:14;;;;;;;;;0.00;0.00;;;;;-0.17;100.00;102816.16;6403545;22;45469;-90
2024/01/20 09:37:42;;;;;;;;;0.00;0.00;;;;;-0.18;100.00;102803.31;6376276;22;45270;-92
2024/01/20 09:40:11;;;;;;;;;0.00;0.00;;;;;-0.08;100.00;102811.47;6349549;22;55378;-92
2024/01/20 09:42:36;;;;;;;;;3.00;3.00;;;;;-0.05;100.00;102806.53;6348029;22;47209;-92
2024/01/20 09:45:06;;;;;;;;;0.00;0.00;;;;;0.02;100.00;102797.47;6374977;22;45239;-92
2024/01/20 09:47:35;;;;;;;;;7.00;7.00;;;;;0.10;100.00;102805.50;6373887;22;45829;-92
2024/01/20 09:50:04;;;;;;;;;0.00;0.00;;;;;0.15;100.00;102811.72;6374842;22;45360;-92
2024/01/20 09:52:31;;;;;;;;;0.00;0.00;;;;;0.18;100.00;102805.03;6347393;22;47130;-91
2024/01/20 09:55:32;;;;;;;;;0.25;0.25;;;;;0.22;100.00;102794.94;6372347;22;45369;-92
2024/01/20 09:57:57;;;;;;;;;1.50;1.50;;;;;0.37;100.00;102816.13;6217887;22;45228;-92
2024/01/20 10:00:24;;;;;;;;;0.00;0.00;;;;;0.42;100.00;102806.97;6214350;22;53374;-92
2024/01/20 10:02:49;;;;;;;;;0.00;0.00;;;;;0.41;100.00;102794.09;6217541;22;47276;-92
2024/01/20 10:05:15;;;;;;;;;0.00;0.00;;;;;0.52;100.00;102806.63;6216441;22;45509;-92
2024/01/20 10:07:43;;;;;;;;;0.00;0.00;;;;;0.58;100.00;102795.75;6192443;22;45418;-92
2024/01/20 10:10:21;;;;;;;;;0.00;0.00;;;;;0.62;100.00;102795.09;6243189;22;45144;-93
2024/01/20 10:12:50;;;;;;;;;0.00;0.00;;;;;0.77;100.00;102811.13;6242224;22;46437;-92
2024/01/20 10:15:29;;;;;;;;;0.00;0.00;;;;;0.84;100.00;102806.31;6216582;22;45374;-92
2024/01/20 10:17:55;;;;;;;;;0.25;0.25;;;;;0.77;100.00;102777.81;6243048;22;45344;-91
2024/01/20 10:20:21;;;;;;;;;0.00;0.00;;;;;0.85;100.00;102783.28;6217531;22;45399;-92
2024/01/20 10:22:51;;;;;;;;;0.00;0.00;;;;;0.89;100.00;102779.16;6217153;22;47200;-92
2024/01/20 10:25:20;;;;;;;;;0.00;0.00;;;;;1.06;100.00;102805.53;6243356;22;45455;-92
2024/01/20 10:27:47;;;;;;;;;0.00;0.00;;;;;1.00;100.00;102779.63;6217184;22;45232;-93
2024/01/20 10:30:21;;;;;;;;;0.00;0.00;;;;;1.19;100.00;102800.16;6192670;22;45405;-92
2024/01/20 10:32:53;;;;;;;;;0.00;0.00;;;;;1.19;100.00;102797.59;6348730;22;46922;-93
2024/01/20 10:35:18;;;;;;;;;0.00;0.00;;;;;1.31;100.00;102792.09;6402628;22;45304;-91
2024/01/20 10:37:56;;;;;;;;;0.00;0.00;;;;;1.44;100.00;102789.22;6347998;22;45430;-92
2024/01/20 10:40:22;;;;;;;;;0.00;0.00;;;;;1.57;100.00;102789.72;6376413;22;45510;-92
2024/01/20 10:42:54;;;;;;;;;0.00;0.00;;;;;1.71;100.00;102789.47;6347259;22;48482;-91
2024/01/20 10:45:22;;;;;;;;;0.00;0.00;;;;;1.84;100.00;102784.81;6401677;22;45170;-92
2024/01/20 10:48:20;;;;;;;;;0.00;0.00;;;;;2.11;100.00;102806.44;6374981;22;45388;-91
2024/01/20 10:51:14;;;;;;;;;0.00;0.00;;;;;2.21;100.00;102799.09;6374772;22;45277;-91
2024/01/20 10:53:43;;;;;;;;;0.00;0.00;;;;;2.37;100.00;102800.56;6273796;22;47794;-91
2024/01/20 10:56:12;;;;;;;;;0.00;0.00;;;;;2.43;100.00;102805.94;6278445;22;45200;-91
2024/01/20 10:59:04;;;;;;;;;0.00;0.00;;;;;2.59;100.00;102802.25;6248260;22;45286;-91
2024/01/20 11:01:30;;;;;;;;;0.00;0.00;;;;;2.75;100.00;102795.97;6278511;22;45263;-91
2024/01/20 11:03:55;;;;;;;;;30.00;30.00;;;;;2.93;100.00;102795.75;6307271;22;45376;-89
2024/01/20 11:06:24;;;;;;;;;0.00;0.00;;;;;3.07;100.00;102790.28;6275123;22;45243;-91
2024/01/20 11:08:51;;;;;;;;;0.00;0.00;;;;;3.32;100.00;102801.41;6248229;22;45438;-91
2024/01/20 11:11:29;;;;;;;;;0.00;0.00;;;;;3.41;100.00;102782.84;6273510;22;45526;-90
2024/01/20 11:14:01;;;;;;;;;0.00;0.00;;;;;3.68;100.00;102778.59;6274729;22;45605;-90
2024/01/20 11:16:40;;;;;;;;;0.00;0.00;;;;;4.03;100.00;102783.09;6286571;22;45058;-88
2024/01/20 11:19:12;;;;;;;;;0.00;0.00;;;;;4.33;100.00;102775.44;6285762;22;45300;-88
2024/01/20 11:21:37;;;;;;;;;0.00;0.00;;;;;5.71;100.00;102780.81;6283312;22;63589;-88
2024/01/20 11:24:04;;;;;;;;;0.00;0.00;;;;;8.77;100.00;102764.63;6284403;22;46243;-89
2024/01/20 11:26:34;;;;;;;;;0.75;0.75;;;;;11.44;100.00;102767.00;6280181;22;45424;-88
2024/01/20 11:29:28;;;;;;;;;0.00;0.00;;;;;13.47;100.00;102757.44;6272457;22;45274;-87
2024/01/20 11:31:55;;;;;;;;;0.00;0.00;;;;;14.23;100.00;102749.69;6310181;22;45356;-88
2024/01/20 11:34:21;;;;;;;;;0.00;0.00;;;;;14.80;100.00;102754.19;6309485;22;47428;-88
2024/01/20 11:36:48;;;;;;;;;0.00;0.00;;;;;15.44;99.81;102760.19;6362415;22;45256;-87
2024/01/20 11:39:14;;;;;;;;;0.00;0.00;;;;;16.10;100.00;102747.59;6362289;22;45196;-88
2024/01/20 11:41:40;;;;;;;;;0.00;0.00;;;;;16.63;90.88;102750.88;6335836;22;45422;-87
2024/01/20 11:44:05;;;;;;;;;0.00;0.00;;;;;16.99;76.07;102743.94;6335765;22;46771;-89
2024/01/20 11:46:31;;;;;;;;;0.00;0.00;;;;;17.22;63.67;102739.88;6336383;22;45748;-90
2024/01/20 11:48:56;;;;;;;;;0.00;0.00;;;;;17.14;57.30;102745.31;6336254;22;45293;-87
2024/01/20 11:51:22;;;;;;;;;0.00;0.00;;;;;17.10;64.20;102745.41;6362454;22;45471;-89
2024/01/20 11:53:47;;;;;;;;;0.00;0.00;;;;;17.15;64.70;102741.78;6362915;22;46422;-89
2024/01/20 11:56:18;;;;;;;;;0.00;0.00;;;;;16.79;61.77;102735.59;6338409;22;45203;-89
2024/01/20 11:58:43;;;;;;;;;0.00;0.00;;;;;16.88;68.66;102724.03;6339319;22;45384;-90
2024/01/20 12:01:13;;;;;;;;;0.00;0.00;;;;;17.24;77.43;102726.69;6337978;22;66305;-89
2024/01/20 12:03:40;;;;;;;;;0.00;0.00;;;;;17.50;64.25;102716.31;6337279;22;46301;-89
2024/01/20 12:06:06;;;;;;;;;0.25;0.25;;;;;17.22;62.15;102724.06;6311112;22;45361;-89
2024/01/20 12:08:32;;;;;;;;;0.00;0.00;;;;;16.68;59.32;102721.81;6337744;22;45377;-90
2024/01/20 12:10:57;;;;;;;;;0.00;0.00;;;;;16.53;57.13;102733.53;6310696;22;45589;-90
2024/01/20 12:13:23;;;;;;;;;0.33;0.33;;;;;16.56;64.29;102720.34;6337428;22;66677;-89
2024/01/20 12:15:49;;;;;;;;;0.00;0.00;;;;;16.85;60.88;102727.59;6369115;22;45194;-89
2024/01/20 12:18:16;;;;;;;;;6.00;4.00;;;;;16.95;57.03;102718.56;6368766;22;45457;-89
2024/01/20 12:20:43;;;;;;;;;0.00;0.00;;;;;17.21;55.26;102702.13;6368824;22;45177;-88
2024/01/20 12:23:09;;;;;;;;;0.00;0.00;;;;;17.97;65.68;102695.72;6336919;22;47076;-89
2024/01/20 12:25:38;;;;;;;;;1.00;1.00;;;;;18.27;58.64;102698.34;6368478;22;46176;-89
2024/01/20 12:28:03;;;;;;;;;0.00;0.00;;;;;18.29;51.56;102687.78;6368661;22;56221;-87
2024/01/20 12:30:29;;;;;;;;;0.00;0.00;;;;;18.46;55.08;102685.50;6369511;22;45373;-88
2024/01/20 12:32:58;;;;;;;;;0.00;0.00;;;;;18.98;53.48;102688.25;6345203;22;47267;-87
2024/01/20 12:35:24;;;;;;;;;0.00;0.00;;;;;19.28;50.52;102682.84;6369049;22;45406;-87
2024/01/20 12:37:52;;;;;;;;;0.00;0.00;;;;;19.35;53.84;102681.69;6368569;22;45374;-87
2024/01/20 12:40:18;;;;;;;;;0.00;0.00;;;;;19.97;53.54;102696.22;6368460;22;45296;-87
2024/01/20 12:42:44;;;;;;;;;0.00;0.00;;;;;20.35;51.73;102678.03;6342047;22;48104;-88
2024/01/20 12:45:12;;;;;;;;;1.00;1.00;;;;;20.79;58.61;102670.09;6366791;22;45290;-87
2024/01/20 12:47:38;;;;;;;;;0.00;0.00;;;;;21.27;45.02;102673.41;6368266;22;52383;-87
2024/01/20 12:50:07;;;;;;;;;0.00;0.00;;;;;21.45;45.07;102675.28;6342409;22;45486;-87
2024/01/20 12:52:36;;;;;;;;;2.50;2.50;;;;;21.37;42.95;102672.03;6369510;22;45385;-87
2024/01/20 12:55:01;;;;;;;;;0.00;0.00;;;;;21.22;40.69;102664.78;6341803;22;45822;-88
2024/01/20 12:57:30;;;;;;;;;0.00;0.00;;;;;21.14;42.27;102651.88;6342161;22;45470;-88
2024/01/20 12:59:55;;;;;;;;;0.00;0.00;;;;;21.45;43.40;102653.19;6343418;22;45329;-88
2024/01/20 13:02:23;;;;;;;;;0.00;0.00;;;;;21.35;42.53;102643.91;6367950;22;62043;-88
2024/01/20 13:04:49;;;;;;;;;0.00;0.00;;;;;21.45;45.23;102634.66;6367830;22;59328;-88
2024/01/20 13:07:15;;;;;;;;;0.00;0.00;;;;;21.93;44.49;102641.28;6369138;22;45232;-88
2024/01/20 13:09:40;;;;;;;;;0.00;0.00;;;;;22.49;40.78;102636.91;6368305;22;45175;-87
2024/01/20 13:12:05;;;;;;;;;0.00;0.00;;;;;23.10;37.95;102640.91;6367375;22;63307;-88
2024/01/20 13:14:31;;;;;;;;;0.00;0.00;;;;;23.67;36.78;102637.88;6368805;22;45587;-89
2024/01/20 13:17:05;;;;;;;;;0.00;0.00;;;;;23.63;33.93;102635.50;6368981;22;45205;-91
2024/01/20 13:19:34;;;;;;;;;0.00;0.00;;;;;23.42;36.04;102627.75;6395626;22;45502;-88
2024/01/20 13:21:59;;;;;;;;;4.00;4.00;;;;;24.23;36.21;102616.22;6367883;22;61637;-87
2024/01/20 13:24:25;;;;;;;;;0.00;0.00;;;;;24.61;36.54;102613.16;6341145;22;62419;-87
2024/01/20 13:26:50;;;;;;;;;0.00;0.00;;;;;25.22;38.22;102612.16;6368665;22;45312;-88
2024/01/20 13:29:15;;;;;;;;;0.00;0.00;;;;;26.55;42.23;102617.03;6370260;22;45375;-88
2024/01/20 13:31:41;;;;;;;;;1.00;1.00;;;;;27.65;34.26;102605.00;6341318;22;56124;-88
2024/01/20 13:34:06;;;;;;;;;1.00;1.00;;;;;28.31;33.42;102610.88;6341269;22;52273;-88
2024/01/20 13:36:31;;;;;;;;;0.00;0.00;;;;;28.59;31.59;102592.75;6369475;22;54013;-89
2024/01/20 13:38:57;;;;;;;;;0.00;0.00;;;;;28.74;29.53;102596.91;6341052;22;53018;-88
2024/01/20 13:41:22;;;;;;;;;0.00;0.00;;;;;28.77;30.81;102589.50;6369284;22;45459;-88
2024/01/20 13:43:48;;;;;;;;;0.00;0.00;;;;;28.78;28.92;102582.31;6351167;22;45400;-90
2024/01/20 13:46:13;;;;;;;;;0.00;0.00;;;;;28.71;33.05;102589.13;6348902;22;44927;-90
2024/01/20 13:48:39;;;;;;;;;1.00;1.00;;;;;28.66;32.71;102593.97;6372303;22;45192;-90
2024/01/20 13:51:04;;;;;;;;;0.00;0.00;;;;;27.31;33.29;102586.88;6342317;22;47918;-88
2024/01/20 13:53:30;;;;;;;;;0.00;0.00;;;;;24.85;30.88;102595.75;6341858;22;45299;-89
2024/01/20 13:55:55;;;;;;;;;0.00;0.00;;;;;23.37;35.45;102579.28;6368805;22;45277;-88
2024/01/20 13:58:21;;;;;;;;;0.00;0.00;;;;;23.03;35.96;102593.47;6395790;22;45380;-89
2024/01/20 14:00:48;;;;;;;;;0.00;0.00;;;;;22.48;36.27;102583.91;6368560;22;46281;-89
2024/01/20 14:03:13;;;;;;;;;0.00;0.00;;;;;21.85;35.91;102591.28;6368759;22;45210;-88
2024/01/20 14:05:38;;;;;;;;;0.50;0.50;;;;;21.30;37.13;102585.84;6369532;22;45156;-88
2024/01/20 14:08:04;;;;;;;;;0.00;0.00;;;;;21.15;38.04;102583.88;6341450;22;59342;-88
2024/01/20 14:10:29;;;;;;;;;1.00;1.00;;;;;20.55;38.47;102586.44;6369052;22;46180;-88
2024/01/20 14:12:55;;;;;;;;;0.00;0.00;;;;;20.04;40.16;102591.13;6368414;22;53668;-89
2024/01/20 14:15:20;;;;;;;;;3.00;3.00;;;;;19.42;35.81;102585.50;6341485;22;57357;-88
2024/01/20 14:17:46;;;;;;;;;0.00;0.00;;;;;18.34;35.35;102588.31;6367704;22;63038;-91
2024/01/20 14:20:11;;;;;;;;;0.00;0.00;;;;;17.52;40.91;102584.63;6342109;22;47749;-89
2024/01/20 14:22:37;;;;;;;;;0.00;0.00;;;;;17.12;38.65;102597.13;6369968;22;45348;-88
2024/01/20 14:25:03;;;;;;;;;0.25;0.25;;;;;16.54;39.09;102603.84;6369022;22;45327;-90
2024/01/20 14:27:28;;;;;;;;;1.00;1.00;;;;;15.85;40.99;102578.25;6370414;22;45632;-90
2024/01/20 14:29:54;;;;;;;;;0.33;0.33;;;;;14.99;41.30;102568.56;6342076;22;54558;-90
2024/01/20 14:32:20;;;;;;;;;0.00;0.00;;;;;14.07;45.15;102558.69;6368980;22;45216;-90
2024/01/20 14:34:45;;;;;;;;;0.00;0.00;;;;;13.38;44.67;102561.34;6368950;22;45161;-91
2024/01/20 14:37:10;;;;;;;;;0.00;0.00;;;;;12.72;46.92;102558.50;6341748;22;45202;-90
2024/01/20 14:39:36;;;;;;;;;0.00;0.00;;;;;12.17;52.47;102554.56;6368258;22;55650;-90
2024/01/20 14:42:02;;;;;;;;;6.00;6.00;;;;;11.76;57.43;102559.97;6369127;22;45385;-90
2024/01/20 14:44:27;;;;;;;;;0.00;0.00;;;;;11.28;52.13;102557.53;6370323;22;45264;-90
2024/01/20 14:46:52;;;;;;;;;0.00;0.00;;;;;10.90;56.39;102553.28;6342386;22;50434;-90
2024/01/20 14:49:18;;;;;;;;;0.00;0.00;;;;;10.53;58.46;102561.13;6342223;22;47890;-90
2024/01/20 14:51:45;;;;;;;;;0.00;0.00;;;;;10.18;61.67;102556.69;6368456;22;45286;-89
2024/01/20 14:54:12;;;;;;;;;0.00;0.00;;;;;9.86;67.66;102546.19;6368970;22;45295;-89
2024/01/20 14:56:41;;;;;;;;;0.00;0.00;;;;;9.56;68.41;102540.03;6367287;22;45300;-90
2024/01/20 14:59:07;;;;;;;;;6.00;1.00;;;;;9.27;79.88;102537.31;6341903;22;46964;-90
2024/01/20 15:01:33;;;;;;;;;0.00;0.00;;;;;9.02;80.56;102546.69;6368656;22;45583;-90
2024/01/20 15:03:59;;;;;;;;;0.00;0.00;;;;;8.65;81.37;102523.03;6336137;22;45456;-91
2024/01/20 15:06:33;;;;;;;;;0.00;0.00;;;;;8.39;88.03;102521.06;6368555;22;45492;-91
2024/01/20 15:09:02;;;;;;;;;0.00;0.00;;;;;8.22;87.91;102549.47;6342009;22;55145;-91
2024/01/20 15:11:28;;;;;;;;;0.00;0.00;;;;;7.98;96.59;102554.41;6369509;22;45469;-91
2024/01/20 15:13:54;;;;;;;;;3.00;3.00;;;;;7.73;89.18;102547.22;6369274;22;45259;-92
2024/01/20 15:16:19;;;;;;;;;0.00;0.00;;;;;7.51;83.09;102550.41;6368896;22;45180;-91
2024/01/20 15:18:44;;;;;;;;;0.00;0.00;;;;;7.31;81.73;102539.75;6368898;22;47159;-92
2024/01/20 15:21:10;;;;;;;;;0.00;0.00;;;;;7.07;89.79;102533.38;6368606;22;45597;-91
2024/01/20 15:23:38;;;;;;;;;0.00;0.00;;;;;6.83;94.49;102518.34;6342513;22;45230;-91
2024/01/20 15:26:06;;;;;;;;;0.00;0.00;;;;;6.72;99.25;102518.22;6368905;22;45605;-91
2024/01/20 15:28:32;;;;;;;;;0.00;0.00;;;;;6.55;98.30;102511.88;6369935;22;46559;-92
2024/01/20 15:31:00;;;;;;;;;0.75;0.75;;;;;6.41;100.00;102514.25;6369001;22;45217;-91
2024/01/20 15:33:26;;;;;;;;;0.00;0.00;;;;;6.24;100.00;102507.91;6369032;22;45193;-91
2024/01/20 15:35:51;;;;;;;;;0.00;0.00;;;;;6.22;100.00;102532.88;6341410;22;56816;-91
2024/01/20 15:38:17;;;;;;;;;0.00;0.00;;;;;6.00;100.00;102530.78;6369144;22;45255;-90
2024/01/20 15:40:43;;;;;;;;;0.00;0.00;;;;;5.86;100.00;102531.31;6342055;22;50950;-91
2024/01/20 15:43:11;;;;;;;;;0.00;0.00;;;;;5.82;100.00;102549.34;6341837;22;45383;-91
2024/01/20 15:45:37;;;;;;;;;0.00;0.00;;;;;5.66;100.00;102528.34;6369055;22;45719;-91
2024/01/20 15:48:06;;;;;;;;;0.00;0.00;;;;;5.67;100.00;102540.44;6368479;22;45442;-90
2024/01/20 15:50:31;;;;;;;;;0.00;0.00;;;;;5.51;100.00;102531.47;6401516;22;45715;-90
2024/01/20 15:52:57;;;;;;;;;0.25;0.25;;;;;5.34;100.00;102525.97;6388476;22;45203;-91
2024/01/20 15:55:22;;;;;;;;;0.00;0.00;;;;;5.24;100.00;102528.34;6372444;22;45240;-90
2024/01/20 15:57:47;;;;;;;;;0.00;0.00;;;;;5.19;100.00;102535.13;6369748;22;46075;-90
2024/01/20 16:00:13;;;;;;;;;0.00;0.00;;;;;4.97;100.00;102507.09;6371190;22;45238;-91
2024/01/20 16:02:38;;;;;;;;;0.00;0.00;;;;;4.87;100.00;102497.38;6369682;22;45174;-91
2024/01/20 16:05:04;;;;;;;;;0.00;0.00;;;;;4.80;100.00;102507.56;6342189;22;46427;-91
2024/01/20 16:07:30;;;;;;;;;0.00;0.00;;;;;4.77;100.00;102515.25;6365923;22;46821;-91
2024/01/20 16:09:58;;;;;;;;;0.00;0.00;;;;;4.68;100.00;102514.13;6369967;22;45295;-91
2024/01/20 16:12:23;;;;;;;;;0.00;0.00;;;;;4.49;100.00;102505.09;6369777;22;45350;-91
2024/01/20 16:14:58;;;;;;;;;0.00;0.00;;;;;4.41;100.00;102508.34;6341506;22;52250;-91
2024/01/20 16:17:23;;;;;;;;;0.00;0.00;;;;;4.32;100.00;102509.84;6368219;22;48377;-91
2024/01/20 16:19:52;;;;;;;;;0.00;0.00;;;;;4.22;100.00;102512.19;6338696;22;45356;-91
2024/01/20 16:22:20;;;;;;;;;0.00;0.00;;;;;4.06;100.00;102499.72;6341949;22;45329;-91
2024/01/20 16:24:46;;;;;;;;;0.00;0.00;;;;;3.97;100.00;102505.50;6369812;22;45499;-91
2024/01/20 16:27:11;;;;;;;;;0.00;0.00;;;;;3.87;100.00;102495.78;6368652;22;47471;-91
2024/01/20 16:29:37;;;;;;;;;0.00;0.00;;;;;3.75;100.00;102516.03;6395197;22;49899;-91
2024/01/20 16:32:02;;;;;;;;;0.00;0.00;;;;;3.76;100.00;102533.25;6367663;22;48182;-92
2024/01/20 16:34:28;;;;;;;;;0.00;0.00;;;;;3.64;100.00;102523.47;6368380;22;45244;-91
2024/01/20 16:36:53;;;;;;;;;0.00;0.00;;;;;3.54;100.00;102516.31;6341668;22;46939;-91
2024/01/20 16:39:21;;;;;;;;;1.00;1.00;;;;;3.45;100.00;102525.50;6368704;22;45778;-92
2024/01/20 16:41:47;;;;;;;;;0.00;0.00;;;;;3.39;100.00;102532.19;6371649;22;45209;-91
2024/01/20 16:44:12;;;;;;;;;31.00;31.00;;;;;3.33;100.00;102532.03;6368995;22;64130;-91
2024/01/20 16:46:38;;;;;;;;;0.00;0.00;;;;;3.29;100.00;102539.66;6345019;22;46945;-91
2024/01/20 16:49:05;;;;;;;;;0.00;0.00;;;;;3.13;100.00;102529.72;6349697;22;45197;-92
2024/01/20 16:51:30;;;;;;;;;0.00;0.00;;;;;3.07;100.00;102514.09;6366064;22;45309;-92
2024/01/20 16:53:58;;;;;;;;;0.00;0.00;;;;;3.06;100.00;102515.78;6371623;22;45513;-91
2024/01/20 16:56:24;;;;;;;;;1.00;1.00;;;;;2.91;100.00;102505.03;6371376;22;47183;-91
2024/01/20 16:58:49;;;;;;;;;0.00;0.00;;;;;2.88;100.00;102508.38;6369763;22;45418;-91
2024/01/20 17:01:15;;;;;;;;;0.00;0.00;;;;;2.86;100.00;102511.72;6343413;22;45494;-91
2024/01/20 17:03:40;;;;;;;;;0.00;0.00;;;;;2.77;100.00;102502.03;6370381;22;45144;-91
2024/01/20 17:06:05;;;;;;;;;0.00;0.00;;;;;2.69;100.00;102491.50;6342578;22;51301;-91
2024/01/20 17:08:31;;;;;;;;;10.00;10.00;;;;;2.68;100.00;102494.91;6369326;22;53881;-91
2024/01/20 17:10:56;;;;;;;;;0.00;0.00;;;;;2.68;100.00;102497.47;6369690;22;45220;-92
2024/01/20 17:13:22;;;;;;;;;0.00;0.00;;;;;2.59;100.00;102493.75;6370605;22;45510;-92
2024/01/20 17:15:47;;;;;;;;;0.00;0.00;;;;;2.55;100.00;102497.03;6368788;22;49008;-91
2024/01/20 17:18:12;;;;;;;;;9.67;9.67;;;;;2.43;100.00;102482.06;6370416;22;61827;-91
2024/01/20 17:20:38;;;;;;;;;0.00;0.00;;;;;2.43;100.00;102484.63;6371577;22;45313;-91
2024/01/20 17:23:04;;;;;;;;;0.00;0.00;;;;;2.36;100.00;102478.44;6369826;22;45208;-91
2024/01/20 17:25:29;;;;;;;;;0.00;0.00;;;;;2.36;100.00;102481.00;6343356;22;46994;-92
2024/01/20 17:27:54;;;;;;;;;0.00;0.00;;;;;2.31;100.00;102480.84;6369664;22;45297;-92
2024/01/20 17:30:20;;;;;;;;;0.00;0.00;;;;;2.37;100.00;102494.72;6342743;22;45361;-91
2024/01/20 17:32:45;;;;;;;;;7.00;7.00;;;;;2.30;100.00;102471.41;6369336;22;45278;-91
2024/01/20 17:35:10;;;;;;;;;0.00;0.00;;;;;2.32;100.00;102476.56;6342717;22;46845;-91
2024/01/20 17:37:36;;;;;;;;;0.00;0.00;;;;;2.24;100.00;102476.31;6370331;22;46051;-90
2024/01/20 17:40:07;;;;;;;;;0.00;0.00;;;;;2.21;100.00;102473.66;6344112;22;45267;-91
2024/01/20 17:42:33;;;;;;;;;0.00;0.00;;;;;2.18;100.00;102477.84;6370511;22;45185;-91
2024/01/20 17:44:59;;;;;;;;;0.00;0.00;;;;;2.15;100.00;102468.31;6379109;22;46542;-91
2024/01/20 17:47:25;;;;;;;;;0.00;0.00;;;;;2.16;100.00;102477.78;6387684;22;44754;-90
2024/01/20 17:49:50;;;;;;;;;0.00;0.00;;;;;2.19;100.00;102487.28;6389527;22;44717;-90
2024/01/20 17:52:15;;;;;;;;;0.00;0.00;;;;;2.15;100.00;102480.28;6357566;22;45313;-90
2024/01/20 17:54:44;;;;;;;;;0.00;0.00;;;;;2.10;100.00;102473.31;6371316;22;45317;-90
2024/01/20 17:57:09;;;;;;;;;0.00;0.00;;;;;2.01;100.00;102462.72;6369520;22;45758;-90
2024/01/20 17:59:36;;;;;;;;;0.00;0.00;;;;;1.97;100.00;102458.31;6368580;22;60564;-91
2024/01/20 18:02:04;;;;;;;;;0.00;0.00;;;;;1.98;100.00;102466.88;6369873;22;45402;-91
2024/01/20 18:04:30;;;;;;;;;0.00;0.00;;;;;1.93;100.00;102449.63;6368850;22;55254;-90
2024/01/20 18:06:55;;;;;;;;;0.00;0.00;;;;;1.96;100.00;102461.69;6343263;22;45599;-90
2024/01/20 18:09:22;;;;;;;;;0.00;0.00;;;;;1.99;100.00;102463.47;6342886;22;45362;-90
2024/01/20 18:11:48;;;;;;;;;0.00;0.00;;;;;1.90;100.00;102446.06;6395753;22;45324;-91
2024/01/20 18:14:14;;;;;;;;;7.00;7.00;;;;;1.97;100.00;102463.44;6368604;22;45466;-91
2024/01/20 18:16:40;;;;;;;;;2.25;2.25;;;;;1.94;100.00;102461.63;6369240;22;45289;-91
2024/01/20 18:19:05;;;;;;;;;0.00;0.00;;;;;1.93;100.00;102464.13;6342900;22;45213;-90
2024/01/20 18:21:30;;;;;;;;;0.00;0.00;;;;;1.87;100.00;102456.22;6369440;22;45201;-90
2024/01/20 18:23:56;;;;;;;;;0.00;0.00;;;;;1.86;100.00;102455.38;6342938;22;62460;-90
2024/01/20 18:26:21;;;;;;;;;0.00;0.00;;;;;1.88;100.00;102452.84;6344955;22;51958;-90
2024/01/20 18:28:47;;;;;;;;;0.00;0.00;;;;;1.86;100.00;102450.22;6371412;22;59010;-90
2024/01/20 18:31:12;;;;;;;;;0.00;0.00;;;;;1.79;100.00;102432.84;6372673;22;45308;-90
2024/01/20 18:33:38;;;;;;;;;0.00;0.00;;;;;1.81;100.00;102444.06;6381853;22;45358;-90